Impacts METAR Board
IDs:

KTME - Houston Executive Ar, TX, US

Updated at: 0300 UTC 15 Aug 2020
Potential Impact None Slight Moderate High
Time 14/15Z 14/16Z 14/17Z 14/18Z 14/19Z 14/20Z 14/21Z 14/22Z 14/23Z 15/00Z 15/01Z 15/02Z 15/03Z
Temp86 88 91 93 95 97 97 97 95 93 90 86 84
Dewpt79 77 75 75 73 73 73 73 73 73 75 75 75
Altim29.98 29.98 29.98 29.95 29.94 29.92 29.90 29.88 29.87 29.86 29.88 29.89 29.91
VIS9 9 10 9 9 9 10 10 10 9 10 10 10
CIG15 -- -- -- -- -- -- -- -- -- -- -- --
CoverBKNFEWCLRCLRCLRCLRSCTFEWCLRCLRCLR----
FltCatMVFRVFRVFRVFRVFRVFRVFRVFRVFRVFRVFRVFRVFR
WX--------------------------
WDir250230230260220200210190200180200190190
WSpd11 7 8 7 6 6 8 7 8 10 10 9 10
WGst-- 13 -- 13 11 -- -- 13 15 -- -- -- 15
Raw hourly METARs
KTME 141455Z AUTO 25011KT 9SM BKN015 BKN020 30/26 A2998 RMK AO2
KTME 141555Z AUTO 23007G13KT 9SM FEW027 31/25 A2998 RMK AO2
KTME 141655Z AUTO 23008KT 10SM CLR 33/24 A2998 RMK AO2
KTME 141755Z AUTO 26007G13KT 9SM CLR 34/24 A2995 RMK AO2
KTME 141855Z AUTO 22006G11KT 9SM CLR 35/23 A2994 RMK AO2
KTME 141955Z AUTO 20006KT 9SM CLR 36/23 A2992 RMK AO2
KTME 142055Z AUTO 21008KT 10SM SCT055 36/23 A2990 RMK AO2
KTME 142155Z AUTO 19007G13KT 10SM FEW055 36/23 A2988 RMK AO2
KTME 142255Z AUTO 20008G15KT 10SM CLR 35/23 A2987 RMK AO2
KTME 142355Z AUTO 18010KT 9SM CLR 34/23 A2986 RMK AO2
KTME 150055Z AUTO 20010KT 10SM CLR 32/24 A2988 RMK AO2
KTME 150155Z AUTO 19009KT 10SM 30/24 A2989 RMK AO2
KTME 150255Z AUTO 19010G15KT 10SM 29/24 A2991 RMK AO2